sensor_id;sensor_type;location;lat;lon;timestamp;pressure;altitude;pressure_sealevel;temperature;humidity
48624;BME280;34422;45.802;16.114;2023-04-30T00:02:18;100166.25;;;12.80;100.00
48624;BME280;34422;45.802;16.114;2023-04-30T00:04:44;100169.41;;;12.77;100.00
48624;BME280;34422;45.802;16.114;2023-04-30T00:07:11;100167.38;;;12.72;100.00
48624;BME280;34422;45.802;16.114;2023-04-30T00:09:38;100178.03;;;12.74;100.00
48624;BME280;34422;45.802;16.114;2023-04-30T00:12:05;100170.34;;;12.71;100.00
48624;BME280;34422;45.802;16.114;2023-04-30T00:14:31;100172.47;;;12.69;100.00
48624;BME280;34422;45.802;16.114;2023-04-30T00:16:58;100176.84;;;12.70;100.00
48624;BME280;34422;45.802;16.114;2023-04-30T00:19:25;100171.84;;;12.67;100.00
48624;BME280;34422;45.802;16.114;2023-04-30T00:21:51;100152.50;;;12.45;100.00
48624;BME280;34422;45.802;16.114;2023-04-30T00:24:18;100170.38;;;12.53;100.00
48624;BME280;34422;45.802;16.114;2023-04-30T00:26:45;100182.13;;;12.46;100.00
48624;BME280;34422;45.802;16.114;2023-04-30T00:29:11;100185.06;;;12.45;100.00
48624;BME280;34422;45.802;16.114;2023-04-30T00:31:38;100184.09;;;12.39;100.00
48624;BME280;34422;45.802;16.114;2023-04-30T00:34:05;100176.50;;;12.30;100.00
48624;BME280;34422;45.802;16.114;2023-04-30T00:36:32;100182.66;;;12.19;100.00
48624;BME280;34422;45.802;16.114;2023-04-30T00:38:58;100188.75;;;12.14;100.00
48624;BME280;34422;45.802;16.114;2023-04-30T00:41:26;100178.78;;;12.08;100.00
48624;BME280;34422;45.802;16.114;2023-04-30T00:43:53;100178.06;;;12.01;100.00
48624;BME280;34422;45.802;16.114;2023-04-30T00:46:20;100178.50;;;11.98;100.00
48624;BME280;34422;45.802;16.114;2023-04-30T00:48:47;100168.53;;;11.92;100.00
48624;BME280;34422;45.802;16.114;2023-04-30T00:51:14;100171.09;;;11.87;100.00
48624;BME280;34422;45.802;16.114;2023-04-30T00:53:42;100174.25;;;11.84;100.00
48624;BME280;34422;45.802;16.114;2023-04-30T00:56:09;100174.06;;;11.79;100.00
48624;BME280;34422;45.802;16.114;2023-04-30T00:58:36;100172.81;;;11.81;100.00
48624;BME280;34422;45.802;16.114;2023-04-30T01:01:03;100173.47;;;11.77;100.00
48624;BME280;34422;45.802;16.114;2023-04-30T01:03:30;100175.78;;;11.73;100.00
48624;BME280;34422;45.802;16.114;2023-04-30T01:05:57;100179.94;;;11.75;100.00
48624;BME280;34422;45.802;16.114;2023-04-30T01:08:24;100176.19;;;11.77;100.00
48624;BME280;34422;45.802;16.114;2023-04-30T01:11:44;100184.34;;;11.70;100.00
48624;BME280;34422;45.802;16.114;2023-04-30T01:14:30;100188.75;;;11.64;100.00
48624;BME280;34422;45.802;16.114;2023-04-30T01:17:15;100178.31;;;11.68;100.00
48624;BME280;34422;45.802;16.114;2023-04-30T01:19:44;100176.63;;;11.73;100.00
48624;BME280;34422;45.802;16.114;2023-04-30T01:22:31;100191.81;;;11.74;100.00
48624;BME280;34422;45.802;16.114;2023-04-30T01:28:14;100193.88;;;11.79;100.00
48624;BME280;34422;45.802;16.114;2023-04-30T01:30:47;100200.34;;;11.78;100.00
48624;BME280;34422;45.802;16.114;2023-04-30T01:33:15;100200.56;;;11.77;100.00
48624;BME280;34422;45.802;16.114;2023-04-30T01:41:38;100191.38;;;11.78;100.00
48624;BME280;34422;45.802;16.114;2023-04-30T01:44:31;100192.44;;;11.77;100.00
48624;BME280;34422;45.802;16.114;2023-04-30T01:47:06;100193.72;;;11.74;100.00
48624;BME280;34422;45.802;16.114;2023-04-30T01:49:54;100193.31;;;11.70;100.00
48624;BME280;34422;45.802;16.114;2023-04-30T01:52:39;100195.84;;;11.65;100.00
48624;BME280;34422;45.802;16.114;2023-04-30T01:57:43;100206.28;;;11.62;100.00
48624;BME280;34422;45.802;16.114;2023-04-30T02:00:14;100202.78;;;11.61;100.00
48624;BME280;34422;45.802;16.114;2023-04-30T02:02:43;100208.44;;;11.53;100.00
48624;BME280;34422;45.802;16.114;2023-04-30T02:05:09;100202.00;;;11.54;100.00
48624;BME280;34422;45.802;16.114;2023-04-30T02:07:41;100211.78;;;11.55;100.00
48624;BME280;34422;45.802;16.114;2023-04-30T02:10:09;100212.81;;;11.54;100.00
48624;BME280;34422;45.802;16.114;2023-04-30T02:12:38;100216.59;;;11.53;100.00
48624;BME280;34422;45.802;16.114;2023-04-30T02:15:05;100215.03;;;11.39;100.00
48624;BME280;34422;45.802;16.114;2023-04-30T02:17:32;100221.47;;;11.38;100.00
48624;BME280;34422;45.802;16.114;2023-04-30T02:19:59;100218.78;;;11.38;100.00
48624;BME280;34422;45.802;16.114;2023-04-30T02:22:26;100217.31;;;11.35;100.00
48624;BME280;34422;45.802;16.114;2023-04-30T02:24:53;100221.53;;;11.31;100.00
48624;BME280;34422;45.802;16.114;2023-04-30T02:27:22;100229.09;;;11.23;100.00
48624;BME280;34422;45.802;16.114;2023-04-30T02:29:50;100226.38;;;11.23;100.00
48624;BME280;34422;45.802;16.114;2023-04-30T02:32:17;100227.41;;;11.22;100.00
48624;BME280;34422;45.802;16.114;2023-04-30T02:34:44;100228.31;;;11.16;100.00
48624;BME280;34422;45.802;16.114;2023-04-30T02:37:11;100232.50;;;11.12;100.00
48624;BME280;34422;45.802;16.114;2023-04-30T02:39:38;100226.44;;;11.10;100.00
48624;BME280;34422;45.802;16.114;2023-04-30T02:42:04;100233.38;;;11.06;100.00
48624;BME280;34422;45.802;16.114;2023-04-30T02:44:32;100235.88;;;11.00;100.00
48624;BME280;34422;45.802;16.114;2023-04-30T02:47:00;100238.41;;;10.95;100.00
48624;BME280;34422;45.802;16.114;2023-04-30T02:49:28;100232.38;;;10.93;100.00
48624;BME280;34422;45.802;16.114;2023-04-30T02:51:55;100235.53;;;10.90;100.00
48624;BME280;34422;45.802;16.114;2023-04-30T02:54:22;100243.44;;;10.85;100.00
48624;BME280;34422;45.802;16.114;2023-04-30T02:56:48;100239.50;;;10.81;100.00
48624;BME280;34422;45.802;16.114;2023-04-30T02:59:15;100251.19;;;10.75;100.00
48624;BME280;34422;45.802;16.114;2023-04-30T03:01:42;100256.00;;;10.66;100.00
48624;BME280;34422;45.802;16.114;2023-04-30T03:04:09;100253.94;;;10.62;100.00
48624;BME280;34422;45.802;16.114;2023-04-30T03:06:35;100255.63;;;10.56;100.00
48624;BME280;34422;45.802;16.114;2023-04-30T03:09:02;100252.75;;;10.51;100.00
48624;BME280;34422;45.802;16.114;2023-04-30T03:11:29;100259.78;;;10.52;100.00
48624;BME280;34422;45.802;16.114;2023-04-30T03:13:56;100259.19;;;10.50;100.00
48624;BME280;34422;45.802;16.114;2023-04-30T03:16:22;100257.91;;;10.53;100.00
48624;BME280;34422;45.802;16.114;2023-04-30T03:18:49;100262.50;;;10.52;100.00
48624;BME280;34422;45.802;16.114;2023-04-30T03:21:16;100268.53;;;10.54;100.00
48624;BME280;34422;45.802;16.114;2023-04-30T03:23:43;100272.91;;;10.55;100.00
48624;BME280;34422;45.802;16.114;2023-04-30T03:26:10;100269.19;;;10.50;100.00
48624;BME280;34422;45.802;16.114;2023-04-30T03:28:36;100272.31;;;10.47;100.00
48624;BME280;34422;45.802;16.114;2023-04-30T03:31:03;100281.06;;;10.49;100.00
48624;BME280;34422;45.802;16.114;2023-04-30T03:33:33;100278.34;;;10.49;100.00
48624;BME280;34422;45.802;16.114;2023-04-30T03:35:59;100285.63;;;10.48;100.00
48624;BME280;34422;45.802;16.114;2023-04-30T03:38:26;100288.53;;;10.47;100.00
48624;BME280;34422;45.802;16.114;2023-04-30T03:40:53;100294.38;;;10.44;100.00
48624;BME280;34422;45.802;16.114;2023-04-30T03:43:20;100283.97;;;10.41;100.00
48624;BME280;34422;45.802;16.114;2023-04-30T03:45:47;100301.84;;;10.42;100.00
48624;BME280;34422;45.802;16.114;2023-04-30T03:48:14;100302.91;;;10.41;100.00
48624;BME280;34422;45.802;16.114;2023-04-30T03:50:41;100301.84;;;10.42;100.00
48624;BME280;34422;45.802;16.114;2023-04-30T03:53:07;100303.53;;;10.36;100.00
48624;BME280;34422;45.802;16.114;2023-04-30T03:55:34;100309.78;;;10.37;100.00
48624;BME280;34422;45.802;16.114;2023-04-30T03:58:01;100313.13;;;10.39;100.00
48624;BME280;34422;45.802;16.114;2023-04-30T04:00:28;100314.34;;;10.43;100.00
48624;BME280;34422;45.802;16.114;2023-04-30T04:02:57;100311.00;;;10.41;100.00
48624;BME280;34422;45.802;16.114;2023-04-30T04:05:24;100319.13;;;10.41;100.00
48624;BME280;34422;45.802;16.114;2023-04-30T04:07:52;100323.09;;;10.38;100.00
48624;BME280;34422;45.802;16.114;2023-04-30T04:10:18;100322.25;;;10.31;100.00
48624;BME280;34422;45.802;16.114;2023-04-30T04:12:45;100335.19;;;10.36;100.00
48624;BME280;34422;45.802;16.114;2023-04-30T04:15:12;100328.31;;;10.33;100.00
48624;BME280;34422;45.802;16.114;2023-04-30T04:17:39;100332.66;;;10.27;100.00
48624;BME280;34422;45.802;16.114;2023-04-30T04:20:06;100331.00;;;10.26;100.00
48624;BME280;34422;45.802;16.114;2023-04-30T04:22:33;100331.81;;;10.27;100.00
48624;BME280;34422;45.802;16.114;2023-04-30T04:25:00;100327.25;;;10.27;100.00
48624;BME280;34422;45.802;16.114;2023-04-30T04:27:27;100345.56;;;10.39;100.00
48624;BME280;34422;45.802;16.114;2023-04-30T04:29:53;100346.63;;;10.38;100.00
48624;BME280;34422;45.802;16.114;2023-04-30T04:32:20;100351.81;;;10.46;100.00
48624;BME280;34422;45.802;16.114;2023-04-30T04:34:48;100340.56;;;10.49;100.00
48624;BME280;34422;45.802;16.114;2023-04-30T04:37:15;100353.88;;;10.50;100.00
48624;BME280;34422;45.802;16.114;2023-04-30T04:39:43;100347.19;;;10.53;100.00
48624;BME280;34422;45.802;16.114;2023-04-30T04:42:10;100355.31;;;10.59;100.00
48624;BME280;34422;45.802;16.114;2023-04-30T04:44:37;100347.63;;;10.63;100.00
48624;BME280;34422;45.802;16.114;2023-04-30T04:47:04;100362.16;;;10.68;100.00
48624;BME280;34422;45.802;16.114;2023-04-30T04:49:31;100355.09;;;10.74;100.00
48624;BME280;34422;45.802;16.114;2023-04-30T04:51:58;100348.63;;;10.75;100.00
48624;BME280;34422;45.802;16.114;2023-04-30T04:54:25;100350.66;;;10.99;100.00
48624;BME280;34422;45.802;16.114;2023-04-30T04:56:51;100352.50;;;11.06;100.00
48624;BME280;34422;45.802;16.114;2023-04-30T04:59:18;100343.72;;;11.17;100.00
48624;BME280;34422;45.802;16.114;2023-04-30T05:01:45;100345.69;;;11.34;100.00
48624;BME280;34422;45.802;16.114;2023-04-30T05:04:12;100348.31;;;11.61;100.00
48624;BME280;34422;45.802;16.114;2023-04-30T05:06:39;100345.66;;;11.86;100.00
48624;BME280;34422;45.802;16.114;2023-04-30T05:09:07;100346.56;;;12.04;100.00
48624;BME280;34422;45.802;16.114;2023-04-30T05:11:35;100351.84;;;12.24;100.00
48624;BME280;34422;45.802;16.114;2023-04-30T05:14:01;100355.81;;;12.46;100.00
48624;BME280;34422;45.802;16.114;2023-04-30T05:16:28;100357.38;;;12.79;100.00
48624;BME280;34422;45.802;16.114;2023-04-30T05:18:55;100358.81;;;13.00;100.00
48624;BME280;34422;45.802;16.114;2023-04-30T05:21:22;100373.03;;;13.20;100.00
48624;BME280;34422;45.802;16.114;2023-04-30T05:23:49;100365.19;;;13.30;100.00
48624;BME280;34422;45.802;16.114;2023-04-30T05:26:15;100362.19;;;13.20;100.00
48624;BME280;34422;45.802;16.114;2023-04-30T05:28:43;100373.44;;;13.24;100.00
48624;BME280;34422;45.802;16.114;2023-04-30T05:31:10;100379.75;;;13.18;100.00
48624;BME280;34422;45.802;16.114;2023-04-30T05:33:37;100382.47;;;13.18;100.00
48624;BME280;34422;45.802;16.114;2023-04-30T05:36:06;100394.34;;;13.23;100.00
48624;BME280;34422;45.802;16.114;2023-04-30T05:38:33;100396.16;;;14.07;100.00
48624;BME280;34422;45.802;16.114;2023-04-30T05:40:59;100399.22;;;14.22;100.00
48624;BME280;34422;45.802;16.114;2023-04-30T05:43:26;100396.16;;;14.61;100.00
48624;BME280;34422;45.802;16.114;2023-04-30T05:45:53;100407.00;;;14.49;100.00
48624;BME280;34422;45.802;16.114;2023-04-30T05:48:20;100410.38;;;14.86;100.00
48624;BME280;34422;45.802;16.114;2023-04-30T05:50:47;100416.13;;;14.43;100.00
48624;BME280;34422;45.802;16.114;2023-04-30T05:53:13;100415.94;;;14.26;100.00
48624;BME280;34422;45.802;16.114;2023-04-30T05:55:40;100414.25;;;14.78;100.00
48624;BME280;34422;45.802;16.114;2023-04-30T05:58:07;100423.56;;;15.41;100.00
48624;BME280;34422;45.802;16.114;2023-04-30T06:00:34;100420.66;;;15.99;100.00
48624;BME280;34422;45.802;16.114;2023-04-30T06:03:01;100433.94;;;16.52;100.00
48624;BME280;34422;45.802;16.114;2023-04-30T06:05:28;100435.84;;;17.02;100.00
48624;BME280;34422;45.802;16.114;2023-04-30T06:07:54;100429.38;;;17.08;100.00
48624;BME280;34422;45.802;16.114;2023-04-30T06:10:22;100419.75;;;16.22;100.00
48624;BME280;34422;45.802;16.114;2023-04-30T06:12:49;100427.88;;;16.50;100.00
48624;BME280;34422;45.802;16.114;2023-04-30T06:15:16;100424.59;;;16.65;100.00
48624;BME280;34422;45.802;16.114;2023-04-30T06:17:43;100433.97;;;16.24;100.00
48624;BME280;34422;45.802;16.114;2023-04-30T06:20:10;100436.34;;;15.52;100.00
48624;BME280;34422;45.802;16.114;2023-04-30T06:22:37;100440.78;;;15.18;100.00
48624;BME280;34422;45.802;16.114;2023-04-30T06:25:04;100430.72;;;15.18;100.00
48624;BME280;34422;45.802;16.114;2023-04-30T06:27:31;100437.72;;;15.26;100.00
48624;BME280;34422;45.802;16.114;2023-04-30T06:29:58;100439.13;;;15.28;100.00
48624;BME280;34422;45.802;16.114;2023-04-30T06:32:26;100428.31;;;15.57;100.00
48624;BME280;34422;45.802;16.114;2023-04-30T06:34:53;100440.38;;;15.61;100.00
48624;BME280;34422;45.802;16.114;2023-04-30T06:37:20;100437.81;;;15.43;100.00
48624;BME280;34422;45.802;16.114;2023-04-30T06:39:48;100450.06;;;15.17;100.00
48624;BME280;34422;45.802;16.114;2023-04-30T06:42:14;100443.78;;;15.16;100.00
48624;BME280;34422;45.802;16.114;2023-04-30T06:44:41;100444.13;;;14.97;100.00
48624;BME280;34422;45.802;16.114;2023-04-30T06:47:08;100442.81;;;14.87;100.00
48624;BME280;34422;45.802;16.114;2023-04-30T06:49:35;100449.47;;;15.03;100.00
48624;BME280;34422;45.802;16.114;2023-04-30T06:52:01;100452.66;;;14.88;100.00
48624;BME280;34422;45.802;16.114;2023-04-30T06:54:28;100459.78;;;14.89;100.00
48624;BME280;34422;45.802;16.114;2023-04-30T06:56:55;100457.97;;;14.95;100.00
48624;BME280;34422;45.802;16.114;2023-04-30T06:59:22;100463.28;;;14.78;100.00
48624;BME280;34422;45.802;16.114;2023-04-30T07:01:49;100465.19;;;14.78;100.00
48624;BME280;34422;45.802;16.114;2023-04-30T07:04:16;100464.34;;;14.66;100.00
48624;BME280;34422;45.802;16.114;2023-04-30T07:06:42;100473.94;;;14.68;100.00
48624;BME280;34422;45.802;16.114;2023-04-30T07:09:09;100488.19;;;14.82;100.00
48624;BME280;34422;45.802;16.114;2023-04-30T07:11:36;100474.31;;;14.95;100.00
48624;BME280;34422;45.802;16.114;2023-04-30T07:14:03;100478.72;;;15.08;100.00
48624;BME280;34422;45.802;16.114;2023-04-30T07:16:31;100484.66;;;15.28;100.00
48624;BME280;34422;45.802;16.114;2023-04-30T07:18:57;100474.91;;;15.32;100.00
48624;BME280;34422;45.802;16.114;2023-04-30T07:21:25;100478.22;;;15.46;100.00
48624;BME280;34422;45.802;16.114;2023-04-30T07:23:53;100476.44;;;15.63;100.00
48624;BME280;34422;45.802;16.114;2023-04-30T07:26:19;100495.06;;;16.80;100.00
48624;BME280;34422;45.802;16.114;2023-04-30T07:28:46;100494.59;;;17.38;100.00
48624;BME280;34422;45.802;16.114;2023-04-30T07:31:14;100488.09;;;18.04;89.88
48624;BME280;34422;45.802;16.114;2023-04-30T07:33:40;100497.31;;;18.47;79.30
48624;BME280;34422;45.802;16.114;2023-04-30T07:36:07;100503.75;;;18.31;82.96
48624;BME280;34422;45.802;16.114;2023-04-30T07:38:34;100497.81;;;17.90;81.28
48624;BME280;34422;45.802;16.114;2023-04-30T07:41:02;100494.69;;;17.26;85.22
48624;BME280;34422;45.802;16.114;2023-04-30T07:43:28;100504.50;;;17.61;87.19
48624;BME280;34422;45.802;16.114;2023-04-30T07:45:56;100497.09;;;17.23;89.28
48624;BME280;34422;45.802;16.114;2023-04-30T07:48:26;100511.06;;;17.21;87.76
48624;BME280;34422;45.802;16.114;2023-04-30T07:50:52;100508.97;;;17.12;86.95
48624;BME280;34422;45.802;16.114;2023-04-30T07:53:19;100515.13;;;17.02;87.89
48624;BME280;34422;45.802;16.114;2023-04-30T07:55:46;100515.34;;;16.84;89.06
48624;BME280;34422;45.802;16.114;2023-04-30T07:58:15;100518.34;;;17.16;86.16
48624;BME280;34422;45.802;16.114;2023-04-30T08:00:47;100516.88;;;17.08;83.39
48624;BME280;34422;45.802;16.114;2023-04-30T08:03:14;100517.84;;;16.85;84.41
48624;BME280;34422;45.802;16.114;2023-04-30T08:05:41;100518.81;;;16.62;86.18
48624;BME280;34422;45.802;16.114;2023-04-30T08:08:08;100529.44;;;16.92;87.30
48624;BME280;34422;45.802;16.114;2023-04-30T08:10:35;100523.09;;;17.59;81.29
48624;BME280;34422;45.802;16.114;2023-04-30T08:13:03;100526.06;;;17.74;81.38
48624;BME280;34422;45.802;16.114;2023-04-30T08:15:30;100521.25;;;17.64;79.71
48624;BME280;34422;45.802;16.114;2023-04-30T08:17:58;100530.03;;;17.50;82.77
48624;BME280;34422;45.802;16.114;2023-04-30T08:20:25;100516.81;;;17.41;83.20
48624;BME280;34422;45.802;16.114;2023-04-30T08:22:52;100527.56;;;17.65;78.34
48624;BME280;34422;45.802;16.114;2023-04-30T08:25:19;100532.88;;;17.38;78.86
48624;BME280;34422;45.802;16.114;2023-04-30T08:27:46;100526.75;;;17.48;80.17
48624;BME280;34422;45.802;16.114;2023-04-30T08:30:12;100526.81;;;17.91;77.44
48624;BME280;34422;45.802;16.114;2023-04-30T08:32:39;100537.22;;;17.89;77.26
48624;BME280;34422;45.802;16.114;2023-04-30T08:35:07;100537.47;;;17.88;77.59
48624;BME280;34422;45.802;16.114;2023-04-30T08:37:34;100538.31;;;19.60;73.87
48624;BME280;34422;45.802;16.114;2023-04-30T08:40:01;100537.81;;;19.63;70.83
48624;BME280;34422;45.802;16.114;2023-04-30T08:42:30;100541.00;;;18.80;74.19
48624;BME280;34422;45.802;16.114;2023-04-30T08:44:59;100539.41;;;18.85;72.31
48624;BME280;34422;45.802;16.114;2023-04-30T08:47:26;100523.00;;;18.63;69.54
48624;BME280;34422;45.802;16.114;2023-04-30T08:49:53;100523.38;;;19.87;67.01
48624;BME280;34422;45.802;16.114;2023-04-30T08:52:21;100532.69;;;21.66;57.30
48624;BME280;34422;45.802;16.114;2023-04-30T08:54:49;100527.50;;;21.49;53.68
48624;BME280;34422;45.802;16.114;2023-04-30T08:57:17;100523.34;;;20.65;57.30
48624;BME280;34422;45.802;16.114;2023-04-30T08:59:44;100539.09;;;20.02;62.87
48624;BME280;34422;45.802;16.114;2023-04-30T09:02:12;100536.19;;;19.72;63.21
48624;BME280;34422;45.802;16.114;2023-04-30T09:04:39;100533.06;;;19.16;60.18
48624;BME280;34422;45.802;16.114;2023-04-30T09:07:07;100541.03;;;19.55;61.95
48624;BME280;34422;45.802;16.114;2023-04-30T09:09:37;100543.50;;;19.51;61.98
48624;BME280;34422;45.802;16.114;2023-04-30T09:12:17;100551.09;;;19.44;61.03
48624;BME280;34422;45.802;16.114;2023-04-30T09:15:02;100537.88;;;18.99;60.76
48624;BME280;34422;45.802;16.114;2023-04-30T09:17:30;100543.38;;;19.36;60.73
48624;BME280;34422;45.802;16.114;2023-04-30T09:20:11;100537.81;;;18.94;59.14
48624;BME280;34422;45.802;16.114;2023-04-30T09:22:39;100545.97;;;18.84;61.69
48624;BME280;34422;45.802;16.114;2023-04-30T09:25:07;100539.09;;;18.86;61.92
48624;BME280;34422;45.802;16.114;2023-04-30T09:27:34;100548.66;;;18.78;60.91
48624;BME280;34422;45.802;16.114;2023-04-30T09:30:01;100553.03;;;18.79;62.72
48624;BME280;34422;45.802;16.114;2023-04-30T09:32:28;100546.38;;;18.70;63.13
48624;BME280;34422;45.802;16.114;2023-04-30T09:34:55;100539.28;;;19.06;63.73
48624;BME280;34422;45.802;16.114;2023-04-30T09:37:39;100548.81;;;18.67;64.82
48624;BME280;34422;45.802;16.114;2023-04-30T09:40:11;100555.56;;;18.59;63.79
48624;BME280;34422;45.802;16.114;2023-04-30T09:42:38;100553.25;;;18.73;65.51
48624;BME280;34422;45.802;16.114;2023-04-30T09:45:05;100538.63;;;18.62;63.08
48624;BME280;34422;45.802;16.114;2023-04-30T09:47:33;100539.94;;;18.87;64.96
48624;BME280;34422;45.802;16.114;2023-04-30T09:50:01;100542.13;;;18.85;62.42
48624;BME280;34422;45.802;16.114;2023-04-30T09:52:28;100543.75;;;19.12;61.48
48624;BME280;34422;45.802;16.114;2023-04-30T09:54:54;100539.69;;;18.61;62.87
48624;BME280;34422;45.802;16.114;2023-04-30T09:57:22;100536.72;;;18.41;63.76
48624;BME280;34422;45.802;16.114;2023-04-30T09:59:51;100542.19;;;18.14;65.71
48624;BME280;34422;45.802;16.114;2023-04-30T10:02:18;100537.53;;;18.15;64.86
48624;BME280;34422;45.802;16.114;2023-04-30T10:04:53;100534.16;;;17.86;65.90
48624;BME280;34422;45.802;16.114;2023-04-30T10:07:23;100537.84;;;18.45;64.21
48624;BME280;34422;45.802;16.114;2023-04-30T10:09:56;100533.22;;;18.72;64.17
48624;BME280;34422;45.802;16.114;2023-04-30T10:12:42;100531.25;;;18.95;63.28
48624;BME280;34422;45.802;16.114;2023-04-30T10:15:14;100526.16;;;19.08;62.74
48624;BME280;34422;45.802;16.114;2023-04-30T10:17:46;100518.09;;;18.97;63.92
48624;BME280;34422;45.802;16.114;2023-04-30T10:20:16;100518.19;;;19.07;63.10
48624;BME280;34422;45.802;16.114;2023-04-30T10:22:46;100528.44;;;19.54;59.46
48624;BME280;34422;45.802;16.114;2023-04-30T10:25:13;100526.88;;;19.73;59.55
48624;BME280;34422;45.802;16.114;2023-04-30T10:27:41;100519.72;;;19.72;58.36
48624;BME280;34422;45.802;16.114;2023-04-30T10:30:09;100533.63;;;19.55;57.59
48624;BME280;34422;45.802;16.114;2023-04-30T10:32:43;100527.72;;;19.36;58.10
48624;BME280;34422;45.802;16.114;2023-04-30T10:35:25;100515.13;;;19.40;59.31
48624;BME280;34422;45.802;16.114;2023-04-30T10:38:09;100516.31;;;19.49;56.52
48624;BME280;34422;45.802;16.114;2023-04-30T10:40:38;100506.03;;;19.77;56.47
48624;BME280;34422;45.802;16.114;2023-04-30T10:43:05;100501.75;;;20.11;55.21
48624;BME280;34422;45.802;16.114;2023-04-30T10:45:37;100495.31;;;20.58;55.30
48624;BME280;34422;45.802;16.114;2023-04-30T10:48:05;100493.41;;;20.74;55.08
48624;BME280;34422;45.802;16.114;2023-04-30T10:50:32;100491.09;;;20.30;53.95
48624;BME280;34422;45.802;16.114;2023-04-30T10:53:05;100496.38;;;20.52;54.01
48624;BME280;34422;45.802;16.114;2023-04-30T10:55:32;100501.28;;;20.35;53.59
48624;BME280;34422;45.802;16.114;2023-04-30T10:57:59;100493.00;;;20.24;54.38
48624;BME280;34422;45.802;16.114;2023-04-30T11:00:28;100491.13;;;20.35;54.45
48624;BME280;34422;45.802;16.114;2023-04-30T11:03:02;100491.13;;;20.35;53.01
48624;BME280;34422;45.802;16.114;2023-04-30T11:05:35;100495.31;;;20.48;52.54
48624;BME280;34422;45.802;16.114;2023-04-30T11:08:03;100484.69;;;19.94;54.79
48624;BME280;34422;45.802;16.114;2023-04-30T11:10:33;100479.50;;;20.03;53.24
48624;BME280;34422;45.802;16.114;2023-04-30T11:13:05;100473.56;;;19.64;55.39
48624;BME280;34422;45.802;16.114;2023-04-30T11:15:40;100484.72;;;20.04;56.25
48624;BME280;34422;45.802;16.114;2023-04-30T11:18:07;100476.41;;;19.89;56.12
48624;BME280;34422;45.802;16.114;2023-04-30T11:20:48;100468.56;;;19.50;56.06
48624;BME280;34422;45.802;16.114;2023-04-30T11:23:23;100480.22;;;19.83;56.45
48624;BME280;34422;45.802;16.114;2023-04-30T11:25:53;100472.91;;;19.46;53.27
48624;BME280;34422;45.802;16.114;2023-04-30T11:28:24;100461.88;;;19.41;55.54
48624;BME280;34422;45.802;16.114;2023-04-30T11:30:53;100475.16;;;19.55;56.81
48624;BME280;34422;45.802;16.114;2023-04-30T11:33:22;100468.81;;;19.07;57.86
48624;BME280;34422;45.802;16.114;2023-04-30T11:35:54;100465.72;;;19.35;54.71
48624;BME280;34422;45.802;16.114;2023-04-30T11:38:26;100441.69;;;19.52;54.19
48624;BME280;34422;45.802;16.114;2023-04-30T11:40:54;100455.50;;;19.83;54.81
48624;BME280;34422;45.802;16.114;2023-04-30T11:43:22;100447.31;;;19.88;52.75
48624;BME280;34422;45.802;16.114;2023-04-30T11:46:10;100444.16;;;20.37;53.05
48624;BME280;34422;45.802;16.114;2023-04-30T11:48:41;100460.59;;;20.27;50.67
48624;BME280;34422;45.802;16.114;2023-04-30T11:51:22;100461.34;;;20.02;50.63
48624;BME280;34422;45.802;16.114;2023-04-30T11:54:01;100460.63;;;20.32;51.69
48624;BME280;34422;45.802;16.114;2023-04-30T11:56:59;100451.81;;;20.30;51.20
48624;BME280;34422;45.802;16.114;2023-04-30T12:17:32;100452.97;;;20.59;46.14
48624;BME280;34422;45.802;16.114;2023-04-30T12:32:13;100432.25;;;20.06;48.91
48624;BME280;34422;45.802;16.114;2023-04-30T12:34:57;100407.69;;;19.64;50.21
48624;BME280;34422;45.802;16.114;2023-04-30T12:37:43;100437.94;;;19.79;48.96
48624;BME280;34422;45.802;16.114;2023-04-30T12:40:14;100439.28;;;19.66;48.64
48624;BME280;34422;45.802;16.114;2023-04-30T12:42:41;100418.69;;;19.74;49.08
48624;BME280;34422;45.802;16.114;2023-04-30T12:48:50;100389.69;;;20.23;48.21
48624;BME280;34422;45.802;16.114;2023-04-30T12:51:25;100408.44;;;20.72;47.04
48624;BME280;34422;45.802;16.114;2023-04-30T12:53:57;100405.56;;;19.86;46.28
48624;BME280;34422;45.802;16.114;2023-04-30T12:56:26;100390.50;;;20.04;47.44
48624;BME280;34422;45.802;16.114;2023-04-30T12:58:53;100392.78;;;20.57;46.03
48624;BME280;34422;45.802;16.114;2023-04-30T13:01:32;100387.56;;;20.61;46.94
48624;BME280;34422;45.802;16.114;2023-04-30T13:04:03;100402.09;;;20.67;46.08
48624;BME280;34422;45.802;16.114;2023-04-30T13:06:42;100400.72;;;20.39;46.78
48624;BME280;34422;45.802;16.114;2023-04-30T13:09:18;100392.38;;;19.88;47.80
48624;BME280;34422;45.802;16.114;2023-04-30T13:11:45;100369.06;;;19.28;48.08
48624;BME280;34422;45.802;16.114;2023-04-30T13:14:12;100404.69;;;19.18;49.97
48624;BME280;34422;45.802;16.114;2023-04-30T13:16:39;100398.72;;;19.31;48.45
48624;BME280;34422;45.802;16.114;2023-04-30T13:19:06;100360.00;;;19.28;47.86
48624;BME280;34422;45.802;16.114;2023-04-30T13:21:33;100389.03;;;19.71;47.72
48624;BME280;34422;45.802;16.114;2023-04-30T13:24:00;100374.84;;;19.94;48.20
48624;BME280;34422;45.802;16.114;2023-04-30T13:26:27;100385.00;;;20.24;49.08
48624;BME280;34422;45.802;16.114;2023-04-30T13:28:54;100364.69;;;20.05;47.69
48624;BME280;34422;45.802;16.114;2023-04-30T13:31:21;100378.41;;;20.00;45.64